createdAt,value
2023-04-18T00:01:23.536Z,25.13
2023-04-18T00:03:50.951Z,19.88
2023-04-18T00:06:17.756Z,20.23
2023-04-18T00:08:44.164Z,21.73
2023-04-18T00:11:10.579Z,19.17
2023-04-18T00:13:38.533Z,18.75
2023-04-18T00:16:05.952Z,19.30
2023-04-18T00:18:32.403Z,17.97
2023-04-18T00:20:58.906Z,20.13
2023-04-18T00:23:27.977Z,19.40
2023-04-18T00:25:54.378Z,16.77
2023-04-18T00:28:20.797Z,17.70
2023-04-18T00:30:47.250Z,17.03
2023-04-18T00:33:13.677Z,20.67
2023-04-18T00:35:40.185Z,17.65
2023-04-18T00:38:06.581Z,18.90
2023-04-18T00:40:33.125Z,17.50
2023-04-18T00:43:00.117Z,17.30
2023-04-18T00:45:26.521Z,17.08
2023-04-18T00:47:52.970Z,17.02
2023-04-18T00:50:19.952Z,16.92
2023-04-18T00:52:47.015Z,15.60
2023-04-18T00:55:13.550Z,16.03
2023-04-18T00:57:40.480Z,13.30
2023-04-18T01:00:10.532Z,17.30
2023-04-18T01:02:38.139Z,16.55
2023-04-18T01:05:06.096Z,15.32
2023-04-18T01:07:35.863Z,16.93
2023-04-18T01:10:02.440Z,13.85
2023-04-18T01:12:28.877Z,17.08
2023-04-18T01:14:55.497Z,16.08
2023-04-18T01:17:23.376Z,14.20
2023-04-18T01:19:51.007Z,15.00
2023-04-18T01:22:19.473Z,14.75
2023-04-18T01:24:45.912Z,16.15
2023-04-18T01:27:15.723Z,14.30
2023-04-18T01:29:42.149Z,14.20
2023-04-18T01:32:08.595Z,13.87
2023-04-18T01:34:35.044Z,15.00
2023-04-18T01:37:01.618Z,17.13
2023-04-18T01:39:28.551Z,15.55
2023-04-18T01:41:54.995Z,14.32
2023-04-18T01:44:21.400Z,13.13
2023-04-18T01:46:47.853Z,15.68
2023-04-18T01:49:14.499Z,15.98
2023-04-18T01:51:42.134Z,15.48
2023-04-18T01:54:08.566Z,15.00
2023-04-18T01:56:35.074Z,15.90
2023-04-18T01:59:01.505Z,16.05
2023-04-18T02:01:28.026Z,15.18
2023-04-18T02:03:54.631Z,17.65
2023-04-18T02:06:21.531Z,16.23
2023-04-18T02:08:47.970Z,17.47
2023-04-18T02:11:14.445Z,15.05
2023-04-18T02:13:41.259Z,18.05
2023-04-18T02:16:12.749Z,17.05
2023-04-18T02:18:39.373Z,15.85
2023-04-18T02:21:05.785Z,16.93
2023-04-18T02:23:32.178Z,17.50
2023-04-18T02:25:58.631Z,16.88
2023-04-18T02:28:25.047Z,17.73
2023-04-18T02:30:51.498Z,16.63
2023-04-18T02:33:17.920Z,15.03
2023-04-18T02:35:44.356Z,17.70
2023-04-18T02:38:10.770Z,16.10
2023-04-18T02:40:37.357Z,16.10
2023-04-18T02:43:03.837Z,17.88
2023-04-18T02:45:30.307Z,17.60
2023-04-18T02:47:56.909Z,17.45
2023-04-18T02:50:24.732Z,17.75
2023-04-18T02:52:54.519Z,14.50
2023-04-18T02:55:21.958Z,19.42
2023-04-18T02:57:48.364Z,17.40
2023-04-18T03:00:14.929Z,16.42
2023-04-18T03:02:41.535Z,17.02
2023-04-18T03:05:08.319Z,17.52
2023-04-18T03:07:34.801Z,11.98
2023-04-18T03:10:01.211Z,14.43
2023-04-18T03:12:27.633Z,16.92
2023-04-18T03:14:54.017Z,18.08
2023-04-18T03:17:20.724Z,16.65
2023-04-18T03:19:47.225Z,15.93
2023-04-18T03:22:14.094Z,17.37
2023-04-18T03:24:40.612Z,18.83
2023-04-18T03:27:07.120Z,15.82
2023-04-18T03:29:33.605Z,15.82
2023-04-18T03:32:00.046Z,22.20
2023-04-18T03:34:27.375Z,20.57
2023-04-18T03:36:54.019Z,20.23
2023-04-18T03:39:20.578Z,17.05
2023-04-18T03:41:47.039Z,16.35
2023-04-18T03:44:13.605Z,17.10
2023-04-18T03:46:40.627Z,23.13
2023-04-18T03:49:07.121Z,16.85
2023-04-18T03:51:41.850Z,20.65
2023-04-18T03:54:08.276Z,19.98
2023-04-18T03:56:35.542Z,18.50
2023-04-18T03:59:01.960Z,16.57
2023-04-18T04:01:28.436Z,16.65
2023-04-18T04:03:54.975Z,19.30
2023-04-18T04:06:21.707Z,19.70
2023-04-18T04:08:48.145Z,18.27
2023-04-18T04:11:14.584Z,19.47
2023-04-18T04:13:41.000Z,18.50
2023-04-18T04:16:07.945Z,18.20
2023-04-18T04:18:34.591Z,17.95
2023-04-18T04:21:01.341Z,17.92
2023-04-18T04:23:27.748Z,19.17
2023-04-18T04:25:54.846Z,23.15
2023-04-18T04:28:22.736Z,18.60
2023-04-18T04:30:53.186Z,19.15
2023-04-18T04:33:20.788Z,18.80
2023-04-18T04:35:47.787Z,17.77
2023-04-18T04:38:15.370Z,21.35
2023-04-18T04:40:42.801Z,18.60
2023-04-18T04:43:12.647Z,17.98
2023-04-18T04:45:42.189Z,18.65
2023-04-18T04:48:09.410Z,19.60
2023-04-18T04:50:37.961Z,20.15
2023-04-18T04:53:06.288Z,19.30
2023-04-18T04:55:33.136Z,18.88
2023-04-18T04:57:59.631Z,18.65
2023-04-18T05:00:26.192Z,17.53
2023-04-18T05:02:55.770Z,16.95
2023-04-18T05:05:22.490Z,18.20
2023-04-18T05:07:48.963Z,18.42
2023-04-18T05:10:15.475Z,18.38
2023-04-18T05:12:41.947Z,21.27
2023-04-18T05:15:08.638Z,19.13
2023-04-18T05:17:35.270Z,19.50
2023-04-18T05:20:01.851Z,21.00
2023-04-18T05:22:28.286Z,18.02
2023-04-18T05:24:54.697Z,19.07
2023-04-18T05:27:21.624Z,18.38
2023-04-18T05:29:49.351Z,18.70
2023-04-18T05:32:16.361Z,19.83
2023-04-18T05:34:43.024Z,18.00
2023-04-18T05:37:09.500Z,18.30
2023-04-18T05:39:35.993Z,17.38
2023-04-18T05:42:02.818Z,17.45
2023-04-18T05:44:29.849Z,18.80
2023-04-18T05:46:56.284Z,18.88
2023-04-18T05:49:22.833Z,18.30
2023-04-18T05:51:49.906Z,17.48
2023-04-18T05:54:17.041Z,20.63
2023-04-18T05:56:43.519Z,18.15
2023-04-18T05:59:09.917Z,17.05
2023-04-18T06:01:36.312Z,17.77
2023-04-18T06:04:02.947Z,18.20
2023-04-18T06:06:29.432Z,18.15
2023-04-18T06:08:55.903Z,19.05
2023-04-18T06:11:22.625Z,15.70
2023-04-18T06:13:49.161Z,15.53
2023-04-18T06:16:16.064Z,17.85
2023-04-18T06:18:42.528Z,14.65
2023-04-18T06:21:08.953Z,15.13
2023-04-18T06:23:35.490Z,15.68
2023-04-18T06:26:01.962Z,16.67
2023-04-18T06:28:28.352Z,17.35
2023-04-18T06:30:54.789Z,13.38
2023-04-18T06:33:21.428Z,20.35
2023-04-18T06:35:47.864Z,13.48
2023-04-18T06:38:14.543Z,19.20
2023-04-18T06:40:40.956Z,14.40
2023-04-18T06:43:07.679Z,15.15
2023-04-18T06:45:34.289Z,13.32
2023-04-18T06:48:03.410Z,15.30
2023-04-18T06:50:30.186Z,16.10
2023-04-18T06:52:56.702Z,14.75
2023-04-18T06:55:23.112Z,17.23
2023-04-18T06:57:49.580Z,22.85
2023-04-18T07:00:16.354Z,18.15
2023-04-18T07:02:43.015Z,14.83
2023-04-18T07:05:09.711Z,13.57
2023-04-18T07:07:36.169Z,19.58
2023-04-18T07:10:02.736Z,15.15
2023-04-18T07:12:29.186Z,16.08
2023-04-18T07:14:55.602Z,16.37
2023-04-18T07:17:22.117Z,14.75
2023-04-18T07:19:48.592Z,13.82
2023-04-18T07:22:15.041Z,16.27
2023-04-18T07:24:41.551Z,16.17
2023-04-18T07:27:09.491Z,14.87
2023-04-18T07:29:36.225Z,13.93
2023-04-18T07:32:03.359Z,15.63
2023-04-18T07:34:30.477Z,14.25
2023-04-18T07:36:57.476Z,14.18
2023-04-18T07:39:24.174Z,13.93
2023-04-18T07:41:50.760Z,15.00
2023-04-18T07:44:18.227Z,13.77
2023-04-18T07:46:44.781Z,15.00
2023-04-18T07:49:11.441Z,14.13
2023-04-18T07:51:38.053Z,15.63
2023-04-18T07:54:04.706Z,14.27
2023-04-18T07:56:31.132Z,14.20
2023-04-18T07:58:57.552Z,14.32
2023-04-18T08:01:24.806Z,13.02
2023-04-18T08:03:53.225Z,13.50
2023-04-18T08:06:20.364Z,14.75
2023-04-18T08:08:47.126Z,14.75
2023-04-18T08:11:13.532Z,13.07
2023-04-18T08:13:39.956Z,13.50
2023-04-18T08:16:06.695Z,20.67
2023-04-18T08:18:33.152Z,16.38
2023-04-18T08:21:00.049Z,14.68
2023-04-18T08:23:26.532Z,17.48
2023-04-18T08:25:52.946Z,13.32
2023-04-18T08:28:19.325Z,17.03
2023-04-18T08:30:49.093Z,14.68
2023-04-18T08:33:16.217Z,12.88
2023-04-18T08:35:43.098Z,14.23
2023-04-18T08:38:09.736Z,14.82
2023-04-18T08:40:37.533Z,16.07
2023-04-18T08:43:09.327Z,13.25
2023-04-18T08:45:36.833Z,14.45
2023-04-18T08:48:03.907Z,13.77
2023-04-18T08:50:30.858Z,14.80
2023-04-18T08:52:59.567Z,13.63
2023-04-18T08:55:26.093Z,14.82
2023-04-18T08:57:55.727Z,15.35
2023-04-18T09:00:23.573Z,13.88
2023-04-18T09:02:55.098Z,15.80
2023-04-18T09:05:23.549Z,15.73
2023-04-18T09:07:53.079Z,15.55
2023-04-18T09:10:33.497Z,14.40
2023-04-18T09:13:03.113Z,13.75
2023-04-18T09:15:30.485Z,13.95
2023-04-18T09:18:00.253Z,14.10
2023-04-18T09:20:34.746Z,16.92
2023-04-18T09:23:07.260Z,17.67
2023-04-18T09:25:39.869Z,14.80
2023-04-18T09:28:28.037Z,15.32
2023-04-18T09:31:14.407Z,14.93
2023-04-18T09:33:44.735Z,12.93
2023-04-18T09:36:23.554Z,15.27
2023-04-18T09:38:53.119Z,23.02
2023-04-18T09:41:23.158Z,17.08
2023-04-18T09:43:49.694Z,15.73
2023-04-18T09:46:17.728Z,13.85
2023-04-18T09:48:44.347Z,15.35
2023-04-18T09:51:15.732Z,13.00
2023-04-18T09:53:51.027Z,10.55
2023-04-18T09:56:28.212Z,10.63
2023-04-18T09:59:08.348Z,14.68
2023-04-18T10:01:35.100Z,14.77
2023-04-18T10:04:04.325Z,13.57
2023-04-18T10:06:38.490Z,15.07
2023-04-18T10:09:05.831Z,15.23
2023-04-18T10:11:32.436Z,16.15
2023-04-18T10:14:07.845Z,13.82
2023-04-18T10:16:36.318Z,14.75
2023-04-18T10:19:26.082Z,15.13
2023-04-18T10:21:55.809Z,11.20
2023-04-18T10:24:48.042Z,16.15
2023-04-18T10:27:16.182Z,16.30
2023-04-18T10:29:53.593Z,14.38
2023-04-18T10:32:23.086Z,14.18
2023-04-18T10:34:50.445Z,15.67
2023-04-18T10:37:18.829Z,14.75
2023-04-18T10:39:55.771Z,14.07
2023-04-18T10:42:47.032Z,12.82
2023-04-18T10:45:21.046Z,11.48
2023-04-18T10:47:50.551Z,8.60
2023-04-18T10:50:17.518Z,12.20
2023-04-18T10:52:44.836Z,11.38
2023-04-18T10:55:16.420Z,10.98
2023-04-18T10:57:50.361Z,11.07
2023-04-18T11:00:21.703Z,8.50
2023-04-18T11:02:55.972Z,11.48
2023-04-18T11:05:28.234Z,11.85
2023-04-18T11:07:55.328Z,14.23
2023-04-18T11:10:26.810Z,14.38
2023-04-18T11:12:54.992Z,13.70
2023-04-18T11:15:23.656Z,12.65
2023-04-18T11:18:03.992Z,16.52
2023-04-18T11:20:46.503Z,16.05
2023-04-18T11:23:18.261Z,16.23
2023-04-18T11:25:45.427Z,17.27
2023-04-18T11:28:13.562Z,14.65
2023-04-18T11:30:41.249Z,11.02
2023-04-18T11:33:08.874Z,10.75
2023-04-18T11:35:45.526Z,10.48
2023-04-18T11:38:15.470Z,13.20
2023-04-18T11:40:48.982Z,13.20
2023-04-18T11:43:20.977Z,12.63
2023-04-18T11:45:58.266Z,14.10
2023-04-18T11:48:34.424Z,14.65
2023-04-18T11:51:01.315Z,13.40
2023-04-18T11:53:35.732Z,14.32
2023-04-18T11:56:03.645Z,14.43
2023-04-18T11:58:34.168Z,13.38
2023-04-18T12:01:22.031Z,12.77
2023-04-18T12:04:11.056Z,14.70
2023-04-18T12:06:51.824Z,13.30
2023-04-18T12:09:19.129Z,12.70
2023-04-18T12:11:58.208Z,14.65
2023-04-18T12:14:24.655Z,15.70
2023-04-18T12:16:51.780Z,16.20
2023-04-18T12:19:20.465Z,14.38
2023-04-18T12:22:00.382Z,15.95
2023-04-18T12:24:28.987Z,14.90
2023-04-18T12:26:57.420Z,15.75
2023-04-18T12:29:24.883Z,15.63
2023-04-18T12:31:53.825Z,13.93
2023-04-18T12:34:20.429Z,12.52
2023-04-18T12:36:47.075Z,14.85
2023-04-18T12:39:13.518Z,13.23
2023-04-18T12:41:39.951Z,10.30
2023-04-18T12:44:06.756Z,13.95
2023-04-18T12:46:33.341Z,15.00
2023-04-18T12:49:00.126Z,15.63
2023-04-18T12:51:27.852Z,15.75
2023-04-18T12:53:54.421Z,17.13
2023-04-18T12:56:21.507Z,15.90
2023-04-18T12:58:47.890Z,12.95
2023-04-18T13:01:14.506Z,16.73
2023-04-18T13:03:41.255Z,17.73
2023-04-18T13:06:08.743Z,19.07
2023-04-18T13:08:35.329Z,18.60
2023-04-18T13:11:01.738Z,17.65
2023-04-18T13:13:28.139Z,17.33
2023-04-18T13:15:54.533Z,19.25
2023-04-18T13:18:21.637Z,17.17
2023-04-18T13:20:49.517Z,17.98
2023-04-18T13:23:15.944Z,18.77
2023-04-18T13:25:42.348Z,18.65
2023-04-18T13:28:08.744Z,18.80
2023-04-18T13:30:35.806Z,17.87
2023-04-18T13:33:02.456Z,16.15
2023-04-18T13:35:28.980Z,15.48
2023-04-18T13:37:56.009Z,16.33
2023-04-18T13:40:22.481Z,16.40
2023-04-18T13:42:48.885Z,15.57
2023-04-18T13:45:15.560Z,14.73
2023-04-18T13:47:42.070Z,15.98
2023-04-18T13:50:09.177Z,10.95
2023-04-18T13:52:36.277Z,16.83
2023-04-18T13:55:03.685Z,18.87
2023-04-18T13:57:32.125Z,15.15
2023-04-18T13:59:58.905Z,15.52
2023-04-18T14:02:25.559Z,15.38
2023-04-18T14:04:54.254Z,14.50
2023-04-18T14:07:20.721Z,17.10
2023-04-18T14:09:48.174Z,13.77
2023-04-18T14:12:14.756Z,14.98
2023-04-18T14:14:42.012Z,13.15
2023-04-18T14:17:08.443Z,15.00
2023-04-18T14:19:35.006Z,14.77
2023-04-18T14:22:01.418Z,14.82
2023-04-18T14:24:27.955Z,14.75
2023-04-18T14:26:54.808Z,14.93
2023-04-18T14:29:21.246Z,15.68
2023-04-18T14:31:47.810Z,13.87
2023-04-18T14:34:14.430Z,16.27
2023-04-18T14:36:40.854Z,16.90
2023-04-18T14:39:07.266Z,16.38
2023-04-18T14:41:33.794Z,16.42
2023-04-18T14:44:00.305Z,16.27
2023-04-18T14:46:28.239Z,15.07
2023-04-18T14:48:54.863Z,16.55
2023-04-18T14:51:21.395Z,16.30
2023-04-18T14:53:47.813Z,17.10
2023-04-18T14:56:15.334Z,19.93
2023-04-18T14:58:42.843Z,17.90
2023-04-18T15:01:09.232Z,16.95
2023-04-18T15:03:35.854Z,16.23
2023-04-18T15:06:02.365Z,15.80
2023-04-18T15:08:30.767Z,17.33
2023-04-18T15:10:58.885Z,15.15
2023-04-18T15:13:25.345Z,18.35
2023-04-18T15:15:53.019Z,15.90
2023-04-18T15:18:19.558Z,14.98
2023-04-18T15:20:47.282Z,15.97
2023-04-18T15:23:14.286Z,15.32
2023-04-18T15:25:41.709Z,14.85
2023-04-18T15:28:08.277Z,14.40
2023-04-18T15:30:34.997Z,14.85
2023-04-18T15:33:02.381Z,14.10
2023-04-18T15:35:28.957Z,14.52
2023-04-18T15:37:56.505Z,14.95
2023-04-18T15:40:23.236Z,15.18
2023-04-18T15:42:50.879Z,13.18
2023-04-18T15:45:17.300Z,14.03
2023-04-18T15:47:44.194Z,14.60
2023-04-18T15:50:11.121Z,13.82
2023-04-18T15:52:37.952Z,15.70
2023-04-18T15:55:05.262Z,13.98
2023-04-18T15:57:32.140Z,14.33
2023-04-18T15:59:59.556Z,14.82
2023-04-18T16:02:26.593Z,14.45
2023-04-18T16:04:53.214Z,14.10
2023-04-18T16:07:19.830Z,11.10
2023-04-18T16:09:46.283Z,14.10
2023-04-18T16:12:12.707Z,13.85
2023-04-18T16:14:39.336Z,14.20
2023-04-18T16:17:05.796Z,13.80
2023-04-18T16:19:34.434Z,14.07
2023-04-18T16:22:02.217Z,12.33
2023-04-18T16:24:30.230Z,14.02
2023-04-18T16:26:56.754Z,12.70
2023-04-18T16:29:23.777Z,12.60
2023-04-18T16:31:51.602Z,15.32
2023-04-18T16:34:18.342Z,15.00
2023-04-18T16:36:44.784Z,12.63
2023-04-18T16:39:11.443Z,13.95
2023-04-18T16:41:37.898Z,14.50
2023-04-18T16:44:04.673Z,13.77
2023-04-18T16:46:32.273Z,14.17
2023-04-18T16:48:59.244Z,14.10
2023-04-18T16:51:26.395Z,15.48
2023-04-18T16:53:52.839Z,14.35
2023-04-18T16:56:19.307Z,12.85
2023-04-18T16:58:45.913Z,13.00
2023-04-18T17:01:12.417Z,13.82
2023-04-18T17:03:38.991Z,14.02
2023-04-18T17:06:05.861Z,14.13
2023-04-18T17:08:33.654Z,13.63
2023-04-18T17:11:02.033Z,13.13
2023-04-18T17:13:30.637Z,12.27
2023-04-18T17:15:58.019Z,12.95
2023-04-18T17:18:24.560Z,13.13
2023-04-18T17:20:52.552Z,12.48
2023-04-18T17:23:19.146Z,15.67
2023-04-18T17:25:46.233Z,14.07
2023-04-18T17:28:14.025Z,13.38
2023-04-18T17:30:43.262Z,12.73
2023-04-18T17:33:10.429Z,15.35
2023-04-18T17:35:37.000Z,13.50
2023-04-18T17:38:03.439Z,12.80
2023-04-18T17:40:29.963Z,10.65
2023-04-18T17:42:56.644Z,13.57
2023-04-18T17:45:23.143Z,13.02
2023-04-18T17:47:50.796Z,13.10
2023-04-18T17:50:17.684Z,14.02
2023-04-18T17:52:45.164Z,12.27
2023-04-18T17:55:11.679Z,12.30
2023-04-18T17:57:38.106Z,13.57
2023-04-18T18:00:10.222Z,14.17
2023-04-18T18:02:37.174Z,13.38
2023-04-18T18:05:03.746Z,13.70
2023-04-18T18:07:31.772Z,13.90
2023-04-18T18:09:58.630Z,12.85
2023-04-18T18:12:25.080Z,13.67
2023-04-18T18:14:51.514Z,14.55
2023-04-18T18:17:17.944Z,14.35
2023-04-18T18:19:44.405Z,14.90
2023-04-18T18:22:10.989Z,12.88
2023-04-18T18:24:37.389Z,17.33
2023-04-18T18:27:03.967Z,12.63
2023-04-18T18:29:30.461Z,14.00
2023-04-18T18:31:56.887Z,13.18
2023-04-18T18:34:23.372Z,13.18
2023-04-18T18:36:50.538Z,14.93
2023-04-18T18:39:17.595Z,14.25
2023-04-18T18:41:44.051Z,14.23
2023-04-18T18:44:11.513Z,14.30
2023-04-18T18:46:37.998Z,15.15
2023-04-18T18:49:04.467Z,14.20
2023-04-18T18:51:30.949Z,14.85
2023-04-18T18:53:57.366Z,13.13
2023-04-18T18:56:23.810Z,14.13
2023-04-18T18:58:50.216Z,13.23
2023-04-18T19:01:16.894Z,11.83
2023-04-18T19:03:43.575Z,13.95
2023-04-18T19:06:10.139Z,14.32
2023-04-18T19:08:36.638Z,13.75
2023-04-18T19:11:04.366Z,13.65
2023-04-18T19:13:30.816Z,17.00
2023-04-18T19:15:57.348Z,17.02
2023-04-18T19:18:24.046Z,16.73
2023-04-18T19:20:50.761Z,17.50
2023-04-18T19:23:17.580Z,16.20
2023-04-18T19:25:44.909Z,16.47
2023-04-18T19:28:12.799Z,16.40
2023-04-18T19:30:39.263Z,16.30
2023-04-18T19:33:05.710Z,15.55
2023-04-18T19:35:32.147Z,17.25
2023-04-18T19:38:01.571Z,15.87
2023-04-18T19:40:31.153Z,19.45
2023-04-18T19:42:57.941Z,18.23
2023-04-18T19:45:24.648Z,20.38
2023-04-18T19:47:51.135Z,18.80
2023-04-18T19:50:17.829Z,19.50
2023-04-18T19:52:44.210Z,18.40
2023-04-18T19:55:10.722Z,17.00
2023-04-18T19:57:41.571Z,15.63
2023-04-18T20:00:13.054Z,15.27
2023-04-18T20:02:40.761Z,18.33
2023-04-18T20:05:08.431Z,15.32
2023-04-18T20:07:35.862Z,15.95
2023-04-18T20:10:02.440Z,16.70
2023-04-18T20:12:28.891Z,16.65
2023-04-18T20:14:55.904Z,15.00
2023-04-18T20:17:22.426Z,13.75
2023-04-18T20:19:49.683Z,14.90
2023-04-18T20:22:17.127Z,15.65
2023-04-18T20:24:45.046Z,14.77
2023-04-18T20:27:11.894Z,14.53
2023-04-18T20:29:38.300Z,14.60
2023-04-18T20:32:05.053Z,15.82
2023-04-18T20:34:31.543Z,16.35
2023-04-18T20:36:58.738Z,16.65
2023-04-18T20:39:25.236Z,15.73
2023-04-18T20:41:52.480Z,14.95
2023-04-18T20:44:22.246Z,16.25
2023-04-18T20:46:48.745Z,14.20
2023-04-18T20:49:15.482Z,15.10
2023-04-18T20:51:42.097Z,14.53
2023-04-18T20:54:08.519Z,12.25
2023-04-18T20:56:36.617Z,17.60
2023-04-18T20:59:04.723Z,12.25
2023-04-18T21:01:31.442Z,11.93
2023-04-18T21:03:58.317Z,14.03
2023-04-18T21:06:24.875Z,16.48
2023-04-18T21:08:51.325Z,14.45
2023-04-18T21:11:17.707Z,15.73
2023-04-18T21:13:44.086Z,13.60
2023-04-18T21:16:10.774Z,14.63
2023-04-18T21:18:37.246Z,12.50
2023-04-18T21:21:04.566Z,11.80
2023-04-18T21:23:31.014Z,11.13
2023-04-18T21:25:57.469Z,14.80
2023-04-18T21:28:23.934Z,12.87
2023-04-18T21:30:50.718Z,14.43
2023-04-18T21:33:17.207Z,13.13
2023-04-18T21:35:43.749Z,12.48
2023-04-18T21:38:10.196Z,12.55
2023-04-18T21:40:37.390Z,12.67
2023-04-18T21:43:04.010Z,12.57
2023-04-18T21:45:30.458Z,11.73
2023-04-18T21:47:56.909Z,13.10
2023-04-18T21:50:23.466Z,11.10
2023-04-18T21:52:49.865Z,14.20
2023-04-18T21:55:16.274Z,12.18
2023-04-18T21:57:42.703Z,11.35
2023-04-18T22:00:11.171Z,11.23
2023-04-18T22:02:37.800Z,11.15
2023-04-18T22:05:04.619Z,11.17
2023-04-18T22:07:31.104Z,12.20
2023-04-18T22:09:59.632Z,12.52
2023-04-18T22:12:26.458Z,10.70
2023-04-18T22:14:53.042Z,11.65
2023-04-18T22:17:20.904Z,13.40
2023-04-18T22:19:49.037Z,11.20
2023-04-18T22:22:15.553Z,11.10
2023-04-18T22:24:41.949Z,10.60
2023-04-18T22:27:08.396Z,12.30
2023-04-18T22:29:34.797Z,12.60
2023-04-18T22:32:01.183Z,11.07
2023-04-18T22:34:27.637Z,11.25
2023-04-18T22:36:54.070Z,11.88
2023-04-18T22:39:20.637Z,13.68
2023-04-18T22:41:47.080Z,10.07
2023-04-18T22:44:13.697Z,12.60
2023-04-18T22:46:40.773Z,11.32
2023-04-18T22:49:07.388Z,10.75
2023-04-18T22:51:34.154Z,12.18
2023-04-18T22:54:00.592Z,12.17
2023-04-18T22:56:26.990Z,11.07
2023-04-18T22:58:53.393Z,10.10
2023-04-18T23:01:19.983Z,11.57
2023-04-18T23:03:46.596Z,10.50
2023-04-18T23:06:13.125Z,10.73
2023-04-18T23:08:39.547Z,10.02
2023-04-18T23:11:06.029Z,11.70
2023-04-18T23:13:32.428Z,10.20
2023-04-18T23:15:58.910Z,14.85
2023-04-18T23:18:25.529Z,12.83
2023-04-18T23:20:51.957Z,10.75
2023-04-18T23:23:18.369Z,10.88
2023-04-18T23:25:44.750Z,10.98
2023-04-18T23:28:13.493Z,10.32
2023-04-18T23:30:39.921Z,13.10
2023-04-18T23:33:06.590Z,13.05
2023-04-18T23:35:33.044Z,11.68
2023-04-18T23:37:59.442Z,10.68
2023-04-18T23:40:25.922Z,9.95
2023-04-18T23:42:52.481Z,11.93
2023-04-18T23:45:19.035Z,11.27
2023-04-18T23:47:45.475Z,11.88
2023-04-18T23:50:12.189Z,11.48
2023-04-18T23:52:38.695Z,12.35
2023-04-18T23:55:05.519Z,12.27
2023-04-18T23:57:31.923Z,11.95
2023-04-18T23:59:58.331Z,12.13
